sensor_id;sensor_type;location;lat;lon;timestamp;P1;durP1;ratioP1;P2;durP2;ratioP2
48665;SDS011;34452;50.796;4.994;2023-05-23T00:02:25;61.37;;;32.53;;
48665;SDS011;34452;50.796;4.994;2023-05-23T00:04:52;69.35;;;36.35;;
48665;SDS011;34452;50.796;4.994;2023-05-23T00:07:22;61.55;;;33.53;;
48665;SDS011;34452;50.796;4.994;2023-05-23T00:09:48;73.50;;;33.80;;
48665;SDS011;34452;50.796;4.994;2023-05-23T00:12:13;58.13;;;31.73;;
48665;SDS011;34452;50.796;4.994;2023-05-23T00:14:39;63.03;;;32.65;;
48665;SDS011;34452;50.796;4.994;2023-05-23T00:17:05;59.55;;;32.83;;
48665;SDS011;34452;50.796;4.994;2023-05-23T00:19:32;57.03;;;32.70;;
48665;SDS011;34452;50.796;4.994;2023-05-23T00:22:00;57.55;;;31.05;;
48665;SDS011;34452;50.796;4.994;2023-05-23T00:24:27;48.72;;;29.20;;
48665;SDS011;34452;50.796;4.994;2023-05-23T00:26:53;63.80;;;31.77;;
48665;SDS011;34452;50.796;4.994;2023-05-23T00:29:19;59.13;;;30.85;;
48665;SDS011;34452;50.796;4.994;2023-05-23T00:31:45;56.58;;;30.25;;
48665;SDS011;34452;50.796;4.994;2023-05-23T00:34:12;60.63;;;31.40;;
48665;SDS011;34452;50.796;4.994;2023-05-23T00:36:39;57.65;;;31.95;;
48665;SDS011;34452;50.796;4.994;2023-05-23T00:39:07;58.67;;;33.20;;
48665;SDS011;34452;50.796;4.994;2023-05-23T00:41:33;67.97;;;32.88;;
48665;SDS011;34452;50.796;4.994;2023-05-23T00:44:00;71.43;;;35.47;;
48665;SDS011;34452;50.796;4.994;2023-05-23T00:46:26;65.65;;;33.28;;
48665;SDS011;34452;50.796;4.994;2023-05-23T00:48:53;55.28;;;29.90;;
48665;SDS011;34452;50.796;4.994;2023-05-23T00:51:19;60.13;;;31.58;;
48665;SDS011;34452;50.796;4.994;2023-05-23T00:53:46;72.65;;;34.60;;
48665;SDS011;34452;50.796;4.994;2023-05-23T00:56:13;61.30;;;31.67;;
48665;SDS011;34452;50.796;4.994;2023-05-23T00:58:38;53.00;;;30.02;;
48665;SDS011;34452;50.796;4.994;2023-05-23T01:01:05;60.55;;;31.67;;
48665;SDS011;34452;50.796;4.994;2023-05-23T01:03:31;59.03;;;31.73;;
48665;SDS011;34452;50.796;4.994;2023-05-23T01:05:57;55.03;;;29.77;;
48665;SDS011;34452;50.796;4.994;2023-05-23T01:08:23;51.10;;;29.40;;
48665;SDS011;34452;50.796;4.994;2023-05-23T01:10:49;54.63;;;30.70;;
48665;SDS011;34452;50.796;4.994;2023-05-23T01:15:43;53.63;;;29.20;;
48665;SDS011;34452;50.796;4.994;2023-05-23T01:18:15;53.17;;;30.58;;
48665;SDS011;34452;50.796;4.994;2023-05-23T01:29:28;47.55;;;26.00;;
48665;SDS011;34452;50.796;4.994;2023-05-23T01:32:02;49.65;;;25.17;;
48665;SDS011;34452;50.796;4.994;2023-05-23T01:34:31;44.08;;;24.00;;
48665;SDS011;34452;50.796;4.994;2023-05-23T01:36:59;44.42;;;24.00;;
48665;SDS011;34452;50.796;4.994;2023-05-23T01:39:25;48.40;;;24.10;;
48665;SDS011;34452;50.796;4.994;2023-05-23T01:41:51;39.55;;;22.13;;
48665;SDS011;34452;50.796;4.994;2023-05-23T01:44:18;42.13;;;22.60;;
48665;SDS011;34452;50.796;4.994;2023-05-23T01:46:45;36.97;;;22.02;;
48665;SDS011;34452;50.796;4.994;2023-05-23T01:49:11;45.30;;;22.70;;
48665;SDS011;34452;50.796;4.994;2023-05-23T01:51:39;43.78;;;23.48;;
48665;SDS011;34452;50.796;4.994;2023-05-23T01:56:32;38.85;;;21.67;;
48665;SDS011;34452;50.796;4.994;2023-05-23T01:58:57;41.55;;;23.23;;
48665;SDS011;34452;50.796;4.994;2023-05-23T02:01:24;46.65;;;25.02;;
48665;SDS011;34452;50.796;4.994;2023-05-23T02:03:50;44.17;;;25.42;;
48665;SDS011;34452;50.796;4.994;2023-05-23T02:06:15;37.85;;;21.92;;
48665;SDS011;34452;50.796;4.994;2023-05-23T02:08:41;41.45;;;23.33;;
48665;SDS011;34452;50.796;4.994;2023-05-23T02:11:07;44.95;;;23.85;;
48665;SDS011;34452;50.796;4.994;2023-05-23T02:13:34;41.47;;;23.38;;
48665;SDS011;34452;50.796;4.994;2023-05-23T02:16:00;40.28;;;21.10;;
48665;SDS011;34452;50.796;4.994;2023-05-23T02:18:26;35.35;;;21.45;;
48665;SDS011;34452;50.796;4.994;2023-05-23T02:20:54;42.78;;;21.48;;
48665;SDS011;34452;50.796;4.994;2023-05-23T02:23:21;41.17;;;21.88;;
48665;SDS011;34452;50.796;4.994;2023-05-23T02:25:47;38.83;;;21.30;;
48665;SDS011;34452;50.796;4.994;2023-05-23T02:28:12;41.50;;;20.45;;
48665;SDS011;34452;50.796;4.994;2023-05-23T02:30:38;37.25;;;19.58;;
48665;SDS011;34452;50.796;4.994;2023-05-23T02:33:04;35.78;;;19.95;;
48665;SDS011;34452;50.796;4.994;2023-05-23T02:35:32;35.63;;;19.40;;
48665;SDS011;34452;50.796;4.994;2023-05-23T02:37:58;37.90;;;19.70;;
48665;SDS011;34452;50.796;4.994;2023-05-23T02:40:24;31.92;;;18.27;;
48665;SDS011;34452;50.796;4.994;2023-05-23T02:42:50;30.33;;;17.60;;
48665;SDS011;34452;50.796;4.994;2023-05-23T02:45:16;29.67;;;16.65;;
48665;SDS011;34452;50.796;4.994;2023-05-23T02:47:42;32.53;;;17.80;;
48665;SDS011;34452;50.796;4.994;2023-05-23T02:50:08;24.40;;;15.20;;
48665;SDS011;34452;50.796;4.994;2023-05-23T02:52:34;26.98;;;14.73;;
48665;SDS011;34452;50.796;4.994;2023-05-23T02:57:26;29.33;;;16.63;;
48665;SDS011;34452;50.796;4.994;2023-05-23T02:59:52;33.40;;;17.77;;
48665;SDS011;34452;50.796;4.994;2023-05-23T03:02:18;35.58;;;17.70;;
48665;SDS011;34452;50.796;4.994;2023-05-23T03:04:43;26.63;;;16.33;;
48665;SDS011;34452;50.796;4.994;2023-05-23T03:07:10;33.17;;;19.13;;
48665;SDS011;34452;50.796;4.994;2023-05-23T03:09:37;37.35;;;19.73;;
48665;SDS011;34452;50.796;4.994;2023-05-23T03:12:03;37.92;;;20.35;;
48665;SDS011;34452;50.796;4.994;2023-05-23T03:16:55;28.40;;;17.08;;
48665;SDS011;34452;50.796;4.994;2023-05-23T03:19:21;37.50;;;19.33;;
48665;SDS011;34452;50.796;4.994;2023-05-23T03:21:47;30.90;;;18.38;;
48665;SDS011;34452;50.796;4.994;2023-05-23T03:24:14;32.90;;;17.67;;
48665;SDS011;34452;50.796;4.994;2023-05-23T03:26:40;45.20;;;18.92;;
48665;SDS011;34452;50.796;4.994;2023-05-23T03:29:06;29.73;;;17.13;;
48665;SDS011;34452;50.796;4.994;2023-05-23T03:31:32;35.42;;;17.80;;
48665;SDS011;34452;50.796;4.994;2023-05-23T03:33:57;33.08;;;17.88;;
48665;SDS011;34452;50.796;4.994;2023-05-23T03:36:23;36.47;;;17.20;;
48665;SDS011;34452;50.796;4.994;2023-05-23T03:38:52;32.42;;;16.75;;
48665;SDS011;34452;50.796;4.994;2023-05-23T03:41:18;31.60;;;17.58;;
48665;SDS011;34452;50.796;4.994;2023-05-23T03:43:44;35.45;;;17.58;;
48665;SDS011;34452;50.796;4.994;2023-05-23T03:46:09;31.97;;;17.07;;
48665;SDS011;34452;50.796;4.994;2023-05-23T03:48:35;27.73;;;15.13;;
48665;SDS011;34452;50.796;4.994;2023-05-23T03:51:01;24.63;;;14.50;;
48665;SDS011;34452;50.796;4.994;2023-05-23T03:53:27;30.17;;;15.68;;
48665;SDS011;34452;50.796;4.994;2023-05-23T03:55:52;29.85;;;14.93;;
48665;SDS011;34452;50.796;4.994;2023-05-23T03:58:19;27.35;;;15.30;;
48665;SDS011;34452;50.796;4.994;2023-05-23T04:03:10;24.15;;;14.38;;
48665;SDS011;34452;50.796;4.994;2023-05-23T04:05:39;29.33;;;14.48;;
48665;SDS011;34452;50.796;4.994;2023-05-23T04:08:05;30.15;;;14.07;;
48665;SDS011;34452;50.796;4.994;2023-05-23T04:10:32;26.40;;;12.32;;
48665;SDS011;34452;50.796;4.994;2023-05-23T04:12:57;21.92;;;11.18;;
48665;SDS011;34452;50.796;4.994;2023-05-23T04:15:23;18.38;;;10.07;;
48665;SDS011;34452;50.796;4.994;2023-05-23T04:17:49;23.42;;;10.65;;
48665;SDS011;34452;50.796;4.994;2023-05-23T04:20:15;26.80;;;12.25;;
48665;SDS011;34452;50.796;4.994;2023-05-23T04:22:41;25.38;;;11.98;;
48665;SDS011;34452;50.796;4.994;2023-05-23T04:25:07;25.70;;;12.48;;
48665;SDS011;34452;50.796;4.994;2023-05-23T04:27:34;24.48;;;12.80;;
48665;SDS011;34452;50.796;4.994;2023-05-23T04:29:59;27.70;;;13.05;;
48665;SDS011;34452;50.796;4.994;2023-05-23T04:32:25;26.88;;;13.68;;
48665;SDS011;34452;50.796;4.994;2023-05-23T04:34:51;28.35;;;12.20;;
48665;SDS011;34452;50.796;4.994;2023-05-23T04:37:18;29.25;;;11.55;;
48665;SDS011;34452;50.796;4.994;2023-05-23T04:39:50;26.60;;;11.68;;
48665;SDS011;34452;50.796;4.994;2023-05-23T04:42:17;22.65;;;11.40;;
48665;SDS011;34452;50.796;4.994;2023-05-23T04:44:42;27.33;;;11.95;;
48665;SDS011;34452;50.796;4.994;2023-05-23T04:47:08;24.90;;;11.07;;
48665;SDS011;34452;50.796;4.994;2023-05-23T04:49:36;23.98;;;11.25;;
48665;SDS011;34452;50.796;4.994;2023-05-23T04:52:01;21.58;;;10.93;;
48665;SDS011;34452;50.796;4.994;2023-05-23T04:54:27;23.25;;;11.30;;
48665;SDS011;34452;50.796;4.994;2023-05-23T04:56:53;18.02;;;10.13;;
48665;SDS011;34452;50.796;4.994;2023-05-23T04:59:19;21.10;;;10.73;;
48665;SDS011;34452;50.796;4.994;2023-05-23T05:01:44;19.75;;;9.65;;
48665;SDS011;34452;50.796;4.994;2023-05-23T05:04:10;22.60;;;10.23;;
48665;SDS011;34452;50.796;4.994;2023-05-23T05:06:36;17.15;;;9.80;;
48665;SDS011;34452;50.796;4.994;2023-05-23T05:09:02;15.15;;;8.95;;
48665;SDS011;34452;50.796;4.994;2023-05-23T05:11:27;21.30;;;9.75;;
48665;SDS011;34452;50.796;4.994;2023-05-23T05:13:53;15.45;;;9.20;;
48665;SDS011;34452;50.796;4.994;2023-05-23T05:16:19;19.83;;;9.40;;
48665;SDS011;34452;50.796;4.994;2023-05-23T05:18:45;23.05;;;10.32;;
48665;SDS011;34452;50.796;4.994;2023-05-23T05:21:11;16.88;;;9.15;;
48665;SDS011;34452;50.796;4.994;2023-05-23T05:23:37;19.47;;;9.17;;
48665;SDS011;34452;50.796;4.994;2023-05-23T05:26:02;20.02;;;9.40;;
48665;SDS011;34452;50.796;4.994;2023-05-23T05:28:29;16.85;;;9.13;;
48665;SDS011;34452;50.796;4.994;2023-05-23T05:30:55;19.17;;;10.00;;
48665;SDS011;34452;50.796;4.994;2023-05-23T05:33:21;18.73;;;8.52;;
48665;SDS011;34452;50.796;4.994;2023-05-23T05:35:48;19.88;;;8.90;;
48665;SDS011;34452;50.796;4.994;2023-05-23T05:38:15;19.73;;;10.20;;
48665;SDS011;34452;50.796;4.994;2023-05-23T05:40:41;21.02;;;8.70;;
48665;SDS011;34452;50.796;4.994;2023-05-23T05:43:07;21.35;;;9.70;;
48665;SDS011;34452;50.796;4.994;2023-05-23T05:45:34;18.73;;;9.30;;
48665;SDS011;34452;50.796;4.994;2023-05-23T05:48:00;19.92;;;9.15;;
48665;SDS011;34452;50.796;4.994;2023-05-23T05:50:26;21.92;;;10.20;;
48665;SDS011;34452;50.796;4.994;2023-05-23T05:52:51;20.05;;;9.07;;
48665;SDS011;34452;50.796;4.994;2023-05-23T05:55:17;16.15;;;9.18;;
48665;SDS011;34452;50.796;4.994;2023-05-23T05:57:43;24.45;;;10.90;;
48665;SDS011;34452;50.796;4.994;2023-05-23T06:00:10;24.52;;;10.15;;
48665;SDS011;34452;50.796;4.994;2023-05-23T06:02:39;26.38;;;10.68;;
48665;SDS011;34452;50.796;4.994;2023-05-23T06:05:07;19.38;;;9.63;;
48665;SDS011;34452;50.796;4.994;2023-05-23T06:07:37;20.95;;;9.80;;
48665;SDS011;34452;50.796;4.994;2023-05-23T06:10:04;25.95;;;10.50;;
48665;SDS011;34452;50.796;4.994;2023-05-23T06:12:30;18.05;;;8.75;;
48665;SDS011;34452;50.796;4.994;2023-05-23T06:14:56;19.50;;;9.48;;
48665;SDS011;34452;50.796;4.994;2023-05-23T06:17:22;21.27;;;9.38;;
48665;SDS011;34452;50.796;4.994;2023-05-23T06:19:47;22.13;;;10.20;;
48665;SDS011;34452;50.796;4.994;2023-05-23T06:22:13;18.50;;;9.60;;
48665;SDS011;34452;50.796;4.994;2023-05-23T06:24:39;17.58;;;9.25;;
48665;SDS011;34452;50.796;4.994;2023-05-23T06:27:05;19.92;;;8.43;;
48665;SDS011;34452;50.796;4.994;2023-05-23T06:29:30;14.77;;;9.30;;
48665;SDS011;34452;50.796;4.994;2023-05-23T06:31:56;26.98;;;9.98;;
48665;SDS011;34452;50.796;4.994;2023-05-23T06:34:22;20.50;;;9.55;;
48665;SDS011;34452;50.796;4.994;2023-05-23T06:36:47;26.73;;;10.15;;
48665;SDS011;34452;50.796;4.994;2023-05-23T06:39:13;23.00;;;9.27;;
48665;SDS011;34452;50.796;4.994;2023-05-23T06:41:39;18.80;;;9.57;;
48665;SDS011;34452;50.796;4.994;2023-05-23T06:44:05;17.70;;;8.98;;
48665;SDS011;34452;50.796;4.994;2023-05-23T06:46:31;18.27;;;9.77;;
48665;SDS011;34452;50.796;4.994;2023-05-23T06:48:57;17.17;;;8.95;;
48665;SDS011;34452;50.796;4.994;2023-05-23T06:51:22;20.40;;;8.60;;
48665;SDS011;34452;50.796;4.994;2023-05-23T06:53:48;17.05;;;9.02;;
48665;SDS011;34452;50.796;4.994;2023-05-23T06:56:14;18.58;;;9.65;;
48665;SDS011;34452;50.796;4.994;2023-05-23T06:58:40;20.00;;;9.88;;
48665;SDS011;34452;50.796;4.994;2023-05-23T07:01:06;29.88;;;10.15;;
48665;SDS011;34452;50.796;4.994;2023-05-23T07:03:31;23.00;;;9.07;;
48665;SDS011;34452;50.796;4.994;2023-05-23T07:05:57;25.38;;;9.90;;
48665;SDS011;34452;50.796;4.994;2023-05-23T07:08:23;22.52;;;9.00;;
48665;SDS011;34452;50.796;4.994;2023-05-23T07:10:49;25.50;;;9.35;;
48665;SDS011;34452;50.796;4.994;2023-05-23T07:13:15;25.70;;;9.63;;
48665;SDS011;34452;50.796;4.994;2023-05-23T07:15:40;26.77;;;9.23;;
48665;SDS011;34452;50.796;4.994;2023-05-23T07:18:06;28.45;;;8.73;;
48665;SDS011;34452;50.796;4.994;2023-05-23T07:20:32;21.95;;;8.52;;
48665;SDS011;34452;50.796;4.994;2023-05-23T07:25:24;23.70;;;7.50;;
48665;SDS011;34452;50.796;4.994;2023-05-23T07:27:51;22.73;;;8.10;;
48665;SDS011;34452;50.796;4.994;2023-05-23T07:30:18;21.15;;;7.22;;
48665;SDS011;34452;50.796;4.994;2023-05-23T07:32:46;21.00;;;6.95;;
48665;SDS011;34452;50.796;4.994;2023-05-23T07:35:13;22.38;;;7.28;;
48665;SDS011;34452;50.796;4.994;2023-05-23T07:37:39;18.65;;;7.22;;
48665;SDS011;34452;50.796;4.994;2023-05-23T07:40:05;19.08;;;6.93;;
48665;SDS011;34452;50.796;4.994;2023-05-23T07:42:33;20.73;;;6.32;;
48665;SDS011;34452;50.796;4.994;2023-05-23T07:44:59;21.40;;;7.03;;
48665;SDS011;34452;50.796;4.994;2023-05-23T07:47:25;23.58;;;6.07;;
48665;SDS011;34452;50.796;4.994;2023-05-23T07:49:51;21.92;;;6.15;;
48665;SDS011;34452;50.796;4.994;2023-05-23T07:52:17;23.98;;;6.80;;
48665;SDS011;34452;50.796;4.994;2023-05-23T07:54:43;22.38;;;6.88;;
48665;SDS011;34452;50.796;4.994;2023-05-23T07:57:09;18.50;;;5.97;;
48665;SDS011;34452;50.796;4.994;2023-05-23T07:59:35;16.65;;;5.70;;
48665;SDS011;34452;50.796;4.994;2023-05-23T08:02:03;26.33;;;7.78;;
48665;SDS011;34452;50.796;4.994;2023-05-23T08:04:29;23.27;;;6.20;;
48665;SDS011;34452;50.796;4.994;2023-05-23T08:06:56;15.38;;;5.95;;
48665;SDS011;34452;50.796;4.994;2023-05-23T08:09:22;18.13;;;5.47;;
48665;SDS011;34452;50.796;4.994;2023-05-23T08:11:48;15.75;;;5.63;;
48665;SDS011;34452;50.796;4.994;2023-05-23T08:14:14;20.90;;;5.47;;
48665;SDS011;34452;50.796;4.994;2023-05-23T08:16:39;28.60;;;5.68;;
48665;SDS011;34452;50.796;4.994;2023-05-23T08:19:05;14.80;;;5.75;;
48665;SDS011;34452;50.796;4.994;2023-05-23T08:21:31;17.70;;;6.18;;
48665;SDS011;34452;50.796;4.994;2023-05-23T08:23:57;15.60;;;5.65;;
48665;SDS011;34452;50.796;4.994;2023-05-23T08:26:23;16.35;;;5.88;;
48665;SDS011;34452;50.796;4.994;2023-05-23T08:28:49;17.38;;;6.00;;
48665;SDS011;34452;50.796;4.994;2023-05-23T08:31:15;15.63;;;6.53;;
48665;SDS011;34452;50.796;4.994;2023-05-23T08:33:41;28.17;;;6.90;;
48665;SDS011;34452;50.796;4.994;2023-05-23T08:36:08;13.50;;;6.32;;
48665;SDS011;34452;50.796;4.994;2023-05-23T08:38:34;20.08;;;7.38;;
48665;SDS011;34452;50.796;4.994;2023-05-23T08:41:00;20.10;;;7.60;;
48665;SDS011;34452;50.796;4.994;2023-05-23T08:43:26;15.68;;;7.05;;
48665;SDS011;34452;50.796;4.994;2023-05-23T08:45:53;17.33;;;7.60;;
48665;SDS011;34452;50.796;4.994;2023-05-23T08:50:45;19.92;;;7.70;;
48665;SDS011;34452;50.796;4.994;2023-05-23T08:53:14;16.25;;;7.25;;
48665;SDS011;34452;50.796;4.994;2023-05-23T08:55:59;18.67;;;7.38;;
48665;SDS011;34452;50.796;4.994;2023-05-23T08:58:28;20.50;;;6.88;;
48665;SDS011;34452;50.796;4.994;2023-05-23T09:00:56;28.20;;;7.13;;
48665;SDS011;34452;50.796;4.994;2023-05-23T09:03:24;26.10;;;6.80;;
48665;SDS011;34452;50.796;4.994;2023-05-23T09:05:51;19.98;;;7.25;;
48665;SDS011;34452;50.796;4.994;2023-05-23T09:08:18;19.52;;;7.18;;
48665;SDS011;34452;50.796;4.994;2023-05-23T09:10:45;19.77;;;7.03;;
48665;SDS011;34452;50.796;4.994;2023-05-23T09:13:13;15.95;;;6.70;;
48665;SDS011;34452;50.796;4.994;2023-05-23T09:15:56;25.70;;;7.20;;
48665;SDS011;34452;50.796;4.994;2023-05-23T09:18:25;13.00;;;5.75;;
48665;SDS011;34452;50.796;4.994;2023-05-23T09:20:51;13.07;;;6.22;;
48665;SDS011;34452;50.796;4.994;2023-05-23T09:23:17;22.40;;;6.55;;
48665;SDS011;34452;50.796;4.994;2023-05-23T09:25:53;16.58;;;6.63;;
48665;SDS011;34452;50.796;4.994;2023-05-23T09:28:20;16.85;;;6.45;;
48665;SDS011;34452;50.796;4.994;2023-05-23T09:30:47;17.25;;;6.47;;
48665;SDS011;34452;50.796;4.994;2023-05-23T09:33:24;16.73;;;6.43;;
48665;SDS011;34452;50.796;4.994;2023-05-23T09:35:57;15.98;;;6.70;;
48665;SDS011;34452;50.796;4.994;2023-05-23T09:38:23;19.42;;;6.68;;
48665;SDS011;34452;50.796;4.994;2023-05-23T09:40:49;13.93;;;6.45;;
48665;SDS011;34452;50.796;4.994;2023-05-23T09:43:20;20.27;;;6.85;;
48665;SDS011;34452;50.796;4.994;2023-05-23T09:45:46;21.77;;;7.75;;
48665;SDS011;34452;50.796;4.994;2023-05-23T09:48:12;27.17;;;7.75;;
48665;SDS011;34452;50.796;4.994;2023-05-23T09:50:38;26.67;;;7.72;;
48665;SDS011;34452;50.796;4.994;2023-05-23T09:53:04;15.60;;;6.63;;
48665;SDS011;34452;50.796;4.994;2023-05-23T09:55:29;23.92;;;9.20;;
48665;SDS011;34452;50.796;4.994;2023-05-23T09:57:55;18.95;;;7.55;;
48665;SDS011;34452;50.796;4.994;2023-05-23T10:00:24;20.73;;;7.00;;
48665;SDS011;34452;50.796;4.994;2023-05-23T10:03:04;23.92;;;8.18;;
48665;SDS011;34452;50.796;4.994;2023-05-23T10:05:50;20.52;;;7.85;;
48665;SDS011;34452;50.796;4.994;2023-05-23T10:14:10;24.98;;;7.30;;
48665;SDS011;34452;50.796;4.994;2023-05-23T10:16:52;18.65;;;6.43;;
48665;SDS011;34452;50.796;4.994;2023-05-23T10:19:24;19.35;;;6.68;;
48665;SDS011;34452;50.796;4.994;2023-05-23T10:21:57;11.32;;;5.50;;
48665;SDS011;34452;50.796;4.994;2023-05-23T10:24:24;13.10;;;6.38;;
48665;SDS011;34452;50.796;4.994;2023-05-23T10:26:52;15.25;;;5.72;;
48665;SDS011;34452;50.796;4.994;2023-05-23T10:29:19;13.00;;;5.20;;
48665;SDS011;34452;50.796;4.994;2023-05-23T10:31:46;11.25;;;5.30;;
48665;SDS011;34452;50.796;4.994;2023-05-23T10:34:15;8.27;;;5.40;;
48665;SDS011;34452;50.796;4.994;2023-05-23T10:36:47;15.85;;;6.03;;
48665;SDS011;34452;50.796;4.994;2023-05-23T10:42:21;20.92;;;5.43;;
48665;SDS011;34452;50.796;4.994;2023-05-23T10:45:20;15.95;;;5.47;;
48665;SDS011;34452;50.796;4.994;2023-05-23T10:47:47;14.98;;;5.63;;
48665;SDS011;34452;50.796;4.994;2023-05-23T10:50:15;13.93;;;5.78;;
48665;SDS011;34452;50.796;4.994;2023-05-23T10:52:55;19.80;;;5.13;;
48665;SDS011;34452;50.796;4.994;2023-05-23T10:55:21;10.05;;;4.65;;
48665;SDS011;34452;50.796;4.994;2023-05-23T10:57:47;11.68;;;4.93;;
48665;SDS011;34452;50.796;4.994;2023-05-23T11:00:34;16.98;;;4.85;;
48665;SDS011;34452;50.796;4.994;2023-05-23T11:03:00;13.02;;;5.10;;
48665;SDS011;34452;50.796;4.994;2023-05-23T11:05:33;14.25;;;5.07;;
48665;SDS011;34452;50.796;4.994;2023-05-23T11:08:13;16.52;;;6.07;;
48665;SDS011;34452;50.796;4.994;2023-05-23T11:13:25;18.95;;;5.85;;
48665;SDS011;34452;50.796;4.994;2023-05-23T11:16:22;16.60;;;6.07;;
48665;SDS011;34452;50.796;4.994;2023-05-23T11:18:49;16.02;;;5.32;;
48665;SDS011;34452;50.796;4.994;2023-05-23T11:21:15;11.55;;;4.60;;
48665;SDS011;34452;50.796;4.994;2023-05-23T11:26:27;11.68;;;5.30;;
48665;SDS011;34452;50.796;4.994;2023-05-23T11:28:54;10.40;;;4.40;;
48665;SDS011;34452;50.796;4.994;2023-05-23T11:31:21;13.77;;;4.07;;
48665;SDS011;34452;50.796;4.994;2023-05-23T11:33:49;16.52;;;4.45;;
48665;SDS011;34452;50.796;4.994;2023-05-23T11:36:15;15.73;;;4.50;;
48665;SDS011;34452;50.796;4.994;2023-05-23T11:38:41;9.85;;;3.78;;
48665;SDS011;34452;50.796;4.994;2023-05-23T11:41:07;15.75;;;4.22;;
48665;SDS011;34452;50.796;4.994;2023-05-23T11:43:33;18.05;;;4.35;;
48665;SDS011;34452;50.796;4.994;2023-05-23T11:46:06;10.70;;;4.47;;
48665;SDS011;34452;50.796;4.994;2023-05-23T11:48:33;15.80;;;4.90;;
48665;SDS011;34452;50.796;4.994;2023-05-23T11:50:58;12.18;;;4.05;;
48665;SDS011;34452;50.796;4.994;2023-05-23T11:53:27;15.25;;;4.05;;
48665;SDS011;34452;50.796;4.994;2023-05-23T11:58:20;8.80;;;4.10;;
48665;SDS011;34452;50.796;4.994;2023-05-23T12:00:46;10.35;;;4.28;;
48665;SDS011;34452;50.796;4.994;2023-05-23T12:03:12;10.73;;;3.42;;
48665;SDS011;34452;50.796;4.994;2023-05-23T12:05:38;11.00;;;3.20;;
48665;SDS011;34452;50.796;4.994;2023-05-23T12:08:06;11.25;;;4.32;;
48665;SDS011;34452;50.796;4.994;2023-05-23T12:10:36;10.65;;;3.40;;
48665;SDS011;34452;50.796;4.994;2023-05-23T12:13:15;10.25;;;3.63;;
48665;SDS011;34452;50.796;4.994;2023-05-23T12:15:41;10.60;;;3.47;;
48665;SDS011;34452;50.796;4.994;2023-05-23T12:18:06;10.93;;;3.53;;
48665;SDS011;34452;50.796;4.994;2023-05-23T12:20:32;13.38;;;3.80;;
48665;SDS011;34452;50.796;4.994;2023-05-23T12:23:03;9.88;;;3.20;;
48665;SDS011;34452;50.796;4.994;2023-05-23T12:25:36;11.10;;;3.63;;
48665;SDS011;34452;50.796;4.994;2023-05-23T12:28:18;14.05;;;2.85;;
48665;SDS011;34452;50.796;4.994;2023-05-23T12:30:44;8.10;;;2.80;;
48665;SDS011;34452;50.796;4.994;2023-05-23T12:33:10;10.35;;;3.00;;
48665;SDS011;34452;50.796;4.994;2023-05-23T12:35:36;10.98;;;3.83;;
48665;SDS011;34452;50.796;4.994;2023-05-23T12:38:04;8.48;;;3.22;;
48665;SDS011;34452;50.796;4.994;2023-05-23T12:40:31;12.20;;;3.35;;
48665;SDS011;34452;50.796;4.994;2023-05-23T12:42:57;15.07;;;3.60;;
48665;SDS011;34452;50.796;4.994;2023-05-23T12:45:24;17.83;;;3.47;;
48665;SDS011;34452;50.796;4.994;2023-05-23T12:47:58;13.07;;;3.40;;
48665;SDS011;34452;50.796;4.994;2023-05-23T12:50:25;7.53;;;2.95;;
48665;SDS011;34452;50.796;4.994;2023-05-23T12:52:51;14.07;;;3.28;;
48665;SDS011;34452;50.796;4.994;2023-05-23T12:55:17;12.88;;;2.83;;
48665;SDS011;34452;50.796;4.994;2023-05-23T12:57:43;13.38;;;2.75;;
48665;SDS011;34452;50.796;4.994;2023-05-23T13:00:09;14.88;;;3.35;;
48665;SDS011;34452;50.796;4.994;2023-05-23T13:02:35;10.68;;;2.83;;
48665;SDS011;34452;50.796;4.994;2023-05-23T13:05:01;13.38;;;2.92;;
48665;SDS011;34452;50.796;4.994;2023-05-23T13:07:27;13.60;;;3.28;;
48665;SDS011;34452;50.796;4.994;2023-05-23T13:09:53;23.33;;;3.70;;
48665;SDS011;34452;50.796;4.994;2023-05-23T13:12:19;18.55;;;3.58;;
48665;SDS011;34452;50.796;4.994;2023-05-23T13:14:45;18.48;;;3.53;;
48665;SDS011;34452;50.796;4.994;2023-05-23T13:17:11;12.10;;;3.40;;
48665;SDS011;34452;50.796;4.994;2023-05-23T13:19:36;13.85;;;3.47;;
48665;SDS011;34452;50.796;4.994;2023-05-23T13:24:29;12.32;;;3.63;;
48665;SDS011;34452;50.796;4.994;2023-05-23T13:26:55;14.38;;;3.28;;
48665;SDS011;34452;50.796;4.994;2023-05-23T13:29:21;17.77;;;3.78;;
48665;SDS011;34452;50.796;4.994;2023-05-23T13:31:47;11.73;;;2.97;;
48665;SDS011;34452;50.796;4.994;2023-05-23T13:34:12;13.68;;;2.78;;
48665;SDS011;34452;50.796;4.994;2023-05-23T13:36:38;10.32;;;3.35;;
48665;SDS011;34452;50.796;4.994;2023-05-23T13:39:04;14.63;;;3.25;;
48665;SDS011;34452;50.796;4.994;2023-05-23T13:41:30;13.23;;;3.45;;
48665;SDS011;34452;50.796;4.994;2023-05-23T13:43:55;10.68;;;2.85;;
48665;SDS011;34452;50.796;4.994;2023-05-23T13:46:21;7.22;;;3.20;;
48665;SDS011;34452;50.796;4.994;2023-05-23T13:48:47;12.98;;;3.15;;
48665;SDS011;34452;50.796;4.994;2023-05-23T13:51:13;15.98;;;3.47;;
48665;SDS011;34452;50.796;4.994;2023-05-23T13:53:38;14.20;;;3.38;;
48665;SDS011;34452;50.796;4.994;2023-05-23T13:56:04;14.60;;;3.88;;
48665;SDS011;34452;50.796;4.994;2023-05-23T13:58:30;15.45;;;3.42;;
48665;SDS011;34452;50.796;4.994;2023-05-23T14:00:55;12.10;;;3.05;;
48665;SDS011;34452;50.796;4.994;2023-05-23T14:03:21;12.77;;;3.60;;
48665;SDS011;34452;50.796;4.994;2023-05-23T14:05:48;17.35;;;3.60;;
48665;SDS011;34452;50.796;4.994;2023-05-23T14:08:14;13.30;;;3.72;;
48665;SDS011;34452;50.796;4.994;2023-05-23T14:10:40;25.08;;;4.45;;
48665;SDS011;34452;50.796;4.994;2023-05-23T14:13:06;16.50;;;3.63;;
48665;SDS011;34452;50.796;4.994;2023-05-23T14:15:32;12.52;;;3.35;;
48665;SDS011;34452;50.796;4.994;2023-05-23T14:17:58;13.18;;;3.10;;
48665;SDS011;34452;50.796;4.994;2023-05-23T14:20:24;20.13;;;3.92;;
48665;SDS011;34452;50.796;4.994;2023-05-23T14:22:50;22.70;;;3.72;;
48665;SDS011;34452;50.796;4.994;2023-05-23T14:25:16;13.90;;;3.33;;
48665;SDS011;34452;50.796;4.994;2023-05-23T14:27:42;17.35;;;3.30;;
48665;SDS011;34452;50.796;4.994;2023-05-23T14:30:09;13.93;;;3.58;;
48665;SDS011;34452;50.796;4.994;2023-05-23T14:32:35;12.25;;;3.00;;
48665;SDS011;34452;50.796;4.994;2023-05-23T14:35:12;16.50;;;3.40;;
48665;SDS011;34452;50.796;4.994;2023-05-23T14:37:38;18.42;;;4.03;;
48665;SDS011;34452;50.796;4.994;2023-05-23T14:40:04;13.00;;;2.40;;
48665;SDS011;34452;50.796;4.994;2023-05-23T14:42:31;14.15;;;3.50;;
48665;SDS011;34452;50.796;4.994;2023-05-23T14:44:56;19.52;;;3.35;;
48665;SDS011;34452;50.796;4.994;2023-05-23T14:47:22;15.93;;;3.38;;
48665;SDS011;34452;50.796;4.994;2023-05-23T14:49:48;13.73;;;3.75;;
48665;SDS011;34452;50.796;4.994;2023-05-23T14:52:15;13.20;;;2.80;;
48665;SDS011;34452;50.796;4.994;2023-05-23T14:54:41;14.65;;;3.40;;
48665;SDS011;34452;50.796;4.994;2023-05-23T14:57:07;15.85;;;3.05;;
48665;SDS011;34452;50.796;4.994;2023-05-23T14:59:34;15.10;;;2.90;;
48665;SDS011;34452;50.796;4.994;2023-05-23T15:04:27;15.15;;;3.22;;
48665;SDS011;34452;50.796;4.994;2023-05-23T15:06:53;15.52;;;3.47;;
48665;SDS011;34452;50.796;4.994;2023-05-23T15:09:19;10.73;;;3.03;;
48665;SDS011;34452;50.796;4.994;2023-05-23T15:11:45;12.10;;;3.38;;
48665;SDS011;34452;50.796;4.994;2023-05-23T15:14:13;12.15;;;3.42;;
48665;SDS011;34452;50.796;4.994;2023-05-23T15:16:40;29.00;;;4.00;;
48665;SDS011;34452;50.796;4.994;2023-05-23T15:19:08;18.48;;;3.47;;